Main page
METAR-TAF:

METAR-TAF

Airports :

Wattisham Flying Station

Wattisham, England

latitude: 52-07N, longitude: 000-58E, elevation: 87 m

Current weather observation

The report was made 59 minutes ago, at 06:50 UTC
Wind 4 kt from the South/Southeast
Temperature 16°C
Humidity 94%
Pressure 1011 hPa
Visibility: 3000 m
mist

METAR: EGUW 260650Z AUTO 16004KT 3000 BR FEW100/// OVC130/// 16/15 Q1011

Time: 08:49 (07:49 UTC)


TAF: missing

Weather observations and forecasts of more than 4000 airports (METAR and TAF reports).

The available stations are represented by yellow and red dots on the map.

Hover mouse over dot to see the name of the station.

Then click to see weather observations and forecasts.

To change the map : click on the green buttons with a black cross to zoom in, on the green button with a dash to zoom out, or on the green arrows for adjacent maps.


METAR-TAF: